sensor_id;sensor_type;location;lat;lon;timestamp;P1;durP1;ratioP1;P2;durP2;ratioP2
72127;SDS011;60000;51.030;7.024;2023-12-28T00:00:01;4.93;;;1.60;;
72127;SDS011;60000;51.030;7.024;2023-12-28T00:02:26;4.77;;;1.80;;
72127;SDS011;60000;51.030;7.024;2023-12-28T00:04:51;5.43;;;1.60;;
72127;SDS011;60000;51.030;7.024;2023-12-28T00:34:42;4.68;;;1.50;;
72127;SDS011;60000;51.030;7.024;2023-12-28T00:37:07;7.17;;;1.90;;
72127;SDS011;60000;51.030;7.024;2023-12-28T00:39:33;4.60;;;1.50;;
72127;SDS011;60000;51.030;7.024;2023-12-28T00:41:59;5.93;;;1.83;;
72127;SDS011;60000;51.030;7.024;2023-12-28T00:44:24;4.07;;;1.20;;
72127;SDS011;60000;51.030;7.024;2023-12-28T00:46:50;5.33;;;1.40;;
72127;SDS011;60000;51.030;7.024;2023-12-28T00:49:15;5.07;;;1.50;;
72127;SDS011;60000;51.030;7.024;2023-12-28T00:51:40;4.83;;;1.27;;
72127;SDS011;60000;51.030;7.024;2023-12-28T00:54:06;4.03;;;1.30;;
72127;SDS011;60000;51.030;7.024;2023-12-28T00:56:31;4.00;;;1.03;;
72127;SDS011;60000;51.030;7.024;2023-12-28T00:58:56;3.77;;;1.40;;
72127;SDS011;60000;51.030;7.024;2023-12-28T01:01:22;3.87;;;1.30;;
72127;SDS011;60000;51.030;7.024;2023-12-28T01:03:47;3.97;;;1.17;;
72127;SDS011;60000;51.030;7.024;2023-12-28T01:06:12;3.33;;;1.33;;
72127;SDS011;60000;51.030;7.024;2023-12-28T01:08:38;4.70;;;1.30;;
72127;SDS011;60000;51.030;7.024;2023-12-28T01:11:03;4.07;;;1.30;;
72127;SDS011;60000;51.030;7.024;2023-12-28T01:13:29;4.33;;;1.40;;
72127;SDS011;60000;51.030;7.024;2023-12-28T01:15:55;5.03;;;1.73;;
72127;SDS011;60000;51.030;7.024;2023-12-28T01:18:20;3.87;;;1.30;;
72127;SDS011;60000;51.030;7.024;2023-12-28T01:20:46;4.30;;;1.80;;
72127;SDS011;60000;51.030;7.024;2023-12-28T01:23:11;5.45;;;1.63;;
72127;SDS011;60000;51.030;7.024;2023-12-28T01:25:37;5.17;;;1.40;;
72127;SDS011;60000;51.030;7.024;2023-12-28T01:28:02;3.83;;;1.30;;
72127;SDS011;60000;51.030;7.024;2023-12-28T01:40:45;3.30;;;1.25;;
72127;SDS011;60000;51.030;7.024;2023-12-28T01:43:11;4.30;;;1.10;;
72127;SDS011;60000;51.030;7.024;2023-12-28T01:45:36;4.90;;;1.40;;
72127;SDS011;60000;51.030;7.024;2023-12-28T01:48:01;3.83;;;1.50;;
72127;SDS011;60000;51.030;7.024;2023-12-28T01:50:28;4.22;;;1.27;;
72127;SDS011;60000;51.030;7.024;2023-12-28T01:52:56;3.58;;;1.20;;
72127;SDS011;60000;51.030;7.024;2023-12-28T01:55:24;3.83;;;1.23;;
72127;SDS011;60000;51.030;7.024;2023-12-28T01:57:51;3.03;;;1.03;;
72127;SDS011;60000;51.030;7.024;2023-12-28T02:00:16;3.88;;;1.17;;
72127;SDS011;60000;51.030;7.024;2023-12-28T02:02:42;3.43;;;1.30;;
72127;SDS011;60000;51.030;7.024;2023-12-28T02:05:08;3.63;;;1.30;;
72127;SDS011;60000;51.030;7.024;2023-12-28T02:07:37;3.35;;;1.15;;
72127;SDS011;60000;51.030;7.024;2023-12-28T02:10:02;2.83;;;1.00;;
72127;SDS011;60000;51.030;7.024;2023-12-28T02:12:28;3.87;;;1.10;;
72127;SDS011;60000;51.030;7.024;2023-12-28T02:14:54;2.55;;;0.90;;
72127;SDS011;60000;51.030;7.024;2023-12-28T02:19:58;3.65;;;1.25;;
72127;SDS011;60000;51.030;7.024;2023-12-28T02:22:25;2.80;;;0.97;;
72127;SDS011;60000;51.030;7.024;2023-12-28T02:25:08;3.08;;;1.00;;
72127;SDS011;60000;51.030;7.024;2023-12-28T02:27:40;3.47;;;1.13;;
72127;SDS011;60000;51.030;7.024;2023-12-28T02:30:07;2.67;;;0.98;;
72127;SDS011;60000;51.030;7.024;2023-12-28T02:33:36;3.25;;;1.00;;
72127;SDS011;60000;51.030;7.024;2023-12-28T02:35:42;3.17;;;1.20;;
72127;SDS011;60000;51.030;7.024;2023-12-28T02:38:09;3.55;;;0.90;;
72127;SDS011;60000;51.030;7.024;2023-12-28T02:40:37;2.17;;;0.90;;
72127;SDS011;60000;51.030;7.024;2023-12-28T02:43:04;2.05;;;0.90;;
72127;SDS011;60000;51.030;7.024;2023-12-28T02:45:31;2.92;;;0.93;;
72127;SDS011;60000;51.030;7.024;2023-12-28T02:47:56;2.57;;;1.07;;
72127;SDS011;60000;51.030;7.024;2023-12-28T02:50:22;2.97;;;1.00;;
72127;SDS011;60000;51.030;7.024;2023-12-28T02:52:47;2.73;;;1.00;;
72127;SDS011;60000;51.030;7.024;2023-12-28T02:55:12;3.67;;;1.07;;
72127;SDS011;60000;51.030;7.024;2023-12-28T02:57:38;2.70;;;1.00;;
72127;SDS011;60000;51.030;7.024;2023-12-28T03:00:06;3.00;;;1.03;;
72127;SDS011;60000;51.030;7.024;2023-12-28T03:02:37;2.80;;;1.00;;
72127;SDS011;60000;51.030;7.024;2023-12-28T03:05:06;2.78;;;1.20;;
72127;SDS011;60000;51.030;7.024;2023-12-28T03:07:32;2.97;;;1.08;;
72127;SDS011;60000;51.030;7.024;2023-12-28T03:09:58;2.55;;;0.95;;
72127;SDS011;60000;51.030;7.024;2023-12-28T03:12:23;4.00;;;1.13;;
72127;SDS011;60000;51.030;7.024;2023-12-28T03:14:49;3.73;;;1.30;;
72127;SDS011;60000;51.030;7.024;2023-12-28T03:17:14;2.33;;;0.90;;
72127;SDS011;60000;51.030;7.024;2023-12-28T03:19:39;3.55;;;1.00;;
72127;SDS011;60000;51.030;7.024;2023-12-28T03:22:05;3.23;;;1.13;;
72127;SDS011;60000;51.030;7.024;2023-12-28T03:24:30;3.43;;;1.27;;
72127;SDS011;60000;51.030;7.024;2023-12-28T03:26:55;3.67;;;1.10;;
72127;SDS011;60000;51.030;7.024;2023-12-28T03:29:21;3.50;;;1.10;;
72127;SDS011;60000;51.030;7.024;2023-12-28T03:31:46;3.13;;;1.13;;
72127;SDS011;60000;51.030;7.024;2023-12-28T03:34:11;3.50;;;1.20;;
72127;SDS011;60000;51.030;7.024;2023-12-28T03:36:37;4.47;;;1.30;;
72127;SDS011;60000;51.030;7.024;2023-12-28T03:39:02;4.78;;;1.40;;
72127;SDS011;60000;51.030;7.024;2023-12-28T03:41:28;3.67;;;1.30;;
72127;SDS011;60000;51.030;7.024;2023-12-28T03:43:54;5.63;;;1.40;;
72127;SDS011;60000;51.030;7.024;2023-12-28T03:46:20;4.87;;;1.20;;
72127;SDS011;60000;51.030;7.024;2023-12-28T03:48:45;3.75;;;1.17;;
72127;SDS011;60000;51.030;7.024;2023-12-28T03:51:14;3.72;;;1.40;;
72127;SDS011;60000;51.030;7.024;2023-12-28T03:53:40;4.77;;;1.10;;
72127;SDS011;60000;51.030;7.024;2023-12-28T03:56:06;3.67;;;1.30;;
72127;SDS011;60000;51.030;7.024;2023-12-28T03:58:31;3.73;;;1.33;;
72127;SDS011;60000;51.030;7.024;2023-12-28T04:00:57;5.30;;;1.57;;
72127;SDS011;60000;51.030;7.024;2023-12-28T04:03:22;4.60;;;1.50;;
72127;SDS011;60000;51.030;7.024;2023-12-28T04:05:47;3.73;;;1.10;;
72127;SDS011;60000;51.030;7.024;2023-12-28T04:08:12;3.58;;;1.20;;
72127;SDS011;60000;51.030;7.024;2023-12-28T04:10:38;3.27;;;1.20;;
72127;SDS011;60000;51.030;7.024;2023-12-28T04:13:03;4.50;;;1.47;;
72127;SDS011;60000;51.030;7.024;2023-12-28T04:15:29;3.67;;;1.30;;
72127;SDS011;60000;51.030;7.024;2023-12-28T04:17:55;4.63;;;1.50;;
72127;SDS011;60000;51.030;7.024;2023-12-28T04:20:21;3.67;;;1.30;;
72127;SDS011;60000;51.030;7.024;2023-12-28T04:22:46;4.70;;;1.40;;
72127;SDS011;60000;51.030;7.024;2023-12-28T04:25:11;4.57;;;1.30;;
72127;SDS011;60000;51.030;7.024;2023-12-28T04:27:37;3.70;;;1.40;;
72127;SDS011;60000;51.030;7.024;2023-12-28T04:30:03;3.78;;;1.38;;
72127;SDS011;60000;51.030;7.024;2023-12-28T04:32:30;3.50;;;1.27;;
72127;SDS011;60000;51.030;7.024;2023-12-28T04:34:56;4.97;;;1.47;;
72127;SDS011;60000;51.030;7.024;2023-12-28T04:37:21;4.40;;;1.50;;
72127;SDS011;60000;51.030;7.024;2023-12-28T04:39:46;4.20;;;1.30;;
72127;SDS011;60000;51.030;7.024;2023-12-28T04:42:12;4.05;;;1.40;;
72127;SDS011;60000;51.030;7.024;2023-12-28T04:44:37;3.57;;;1.20;;
72127;SDS011;60000;51.030;7.024;2023-12-28T04:47:03;4.40;;;1.47;;
72127;SDS011;60000;51.030;7.024;2023-12-28T04:49:29;4.32;;;1.63;;
72127;SDS011;60000;51.030;7.024;2023-12-28T04:51:55;5.35;;;1.80;;
72127;SDS011;60000;51.030;7.024;2023-12-28T04:54:20;3.92;;;1.48;;
72127;SDS011;60000;51.030;7.024;2023-12-28T04:56:46;3.90;;;1.40;;
72127;SDS011;60000;51.030;7.024;2023-12-28T04:59:11;4.87;;;1.40;;
72127;SDS011;60000;51.030;7.024;2023-12-28T05:01:40;3.83;;;1.30;;
72127;SDS011;60000;51.030;7.024;2023-12-28T05:04:09;3.55;;;1.23;;
72127;SDS011;60000;51.030;7.024;2023-12-28T05:06:35;3.78;;;1.48;;
72127;SDS011;60000;51.030;7.024;2023-12-28T05:09:00;4.03;;;1.10;;
72127;SDS011;60000;51.030;7.024;2023-12-28T05:11:26;5.13;;;1.30;;
72127;SDS011;60000;51.030;7.024;2023-12-28T05:13:51;4.17;;;1.30;;
72127;SDS011;60000;51.030;7.024;2023-12-28T05:16:17;3.73;;;1.40;;
72127;SDS011;60000;51.030;7.024;2023-12-28T05:18:42;5.23;;;1.30;;
72127;SDS011;60000;51.030;7.024;2023-12-28T05:21:07;3.67;;;1.10;;
72127;SDS011;60000;51.030;7.024;2023-12-28T05:23:33;5.03;;;1.40;;
72127;SDS011;60000;51.030;7.024;2023-12-28T05:25:58;3.50;;;1.17;;
72127;SDS011;60000;51.030;7.024;2023-12-28T05:28:23;5.27;;;1.80;;
72127;SDS011;60000;51.030;7.024;2023-12-28T05:30:49;3.40;;;1.47;;
72127;SDS011;60000;51.030;7.024;2023-12-28T05:33:14;3.47;;;1.27;;
72127;SDS011;60000;51.030;7.024;2023-12-28T05:35:39;4.10;;;1.40;;
72127;SDS011;60000;51.030;7.024;2023-12-28T05:38:05;3.97;;;1.20;;
72127;SDS011;60000;51.030;7.024;2023-12-28T05:40:30;4.75;;;1.63;;
72127;SDS011;60000;51.030;7.024;2023-12-28T05:42:55;3.73;;;1.30;;
72127;SDS011;60000;51.030;7.024;2023-12-28T05:45:21;4.53;;;1.50;;
72127;SDS011;60000;51.030;7.024;2023-12-28T05:47:46;4.63;;;1.50;;
72127;SDS011;60000;51.030;7.024;2023-12-28T05:50:12;4.30;;;1.40;;
72127;SDS011;60000;51.030;7.024;2023-12-28T05:52:37;5.30;;;1.73;;
72127;SDS011;60000;51.030;7.024;2023-12-28T05:55:03;6.90;;;1.70;;
72127;SDS011;60000;51.030;7.024;2023-12-28T05:57:29;4.38;;;1.30;;
72127;SDS011;60000;51.030;7.024;2023-12-28T05:59:55;5.23;;;1.70;;
72127;SDS011;60000;51.030;7.024;2023-12-28T06:02:21;4.20;;;1.50;;
72127;SDS011;60000;51.030;7.024;2023-12-28T06:04:46;3.87;;;1.43;;
72127;SDS011;60000;51.030;7.024;2023-12-28T06:07:12;4.67;;;1.40;;
72127;SDS011;60000;51.030;7.024;2023-12-28T06:09:37;3.90;;;1.53;;
72127;SDS011;60000;51.030;7.024;2023-12-28T06:12:04;4.35;;;1.63;;
72127;SDS011;60000;51.030;7.024;2023-12-28T06:14:29;5.57;;;1.75;;
72127;SDS011;60000;51.030;7.024;2023-12-28T06:16:55;5.10;;;1.63;;
72127;SDS011;60000;51.030;7.024;2023-12-28T06:19:20;4.87;;;1.53;;
72127;SDS011;60000;51.030;7.024;2023-12-28T06:21:47;5.10;;;1.48;;
72127;SDS011;60000;51.030;7.024;2023-12-28T06:24:12;5.60;;;1.80;;
72127;SDS011;60000;51.030;7.024;2023-12-28T06:26:39;4.88;;;1.70;;
72127;SDS011;60000;51.030;7.024;2023-12-28T06:29:07;5.18;;;1.70;;
72127;SDS011;60000;51.030;7.024;2023-12-28T06:31:34;4.65;;;1.45;;
72127;SDS011;60000;51.030;7.024;2023-12-28T06:34:03;5.27;;;1.50;;
72127;SDS011;60000;51.030;7.024;2023-12-28T06:36:29;5.85;;;1.58;;
72127;SDS011;60000;51.030;7.024;2023-12-28T06:38:55;4.78;;;1.60;;
72127;SDS011;60000;51.030;7.024;2023-12-28T06:41:20;4.70;;;1.50;;
72127;SDS011;60000;51.030;7.024;2023-12-28T06:43:45;5.43;;;1.90;;
72127;SDS011;60000;51.030;7.024;2023-12-28T06:46:11;6.13;;;2.00;;
72127;SDS011;60000;51.030;7.024;2023-12-28T06:48:36;5.00;;;1.40;;
72127;SDS011;60000;51.030;7.024;2023-12-28T06:51:05;5.70;;;1.60;;
72127;SDS011;60000;51.030;7.024;2023-12-28T06:53:30;4.10;;;1.50;;
72127;SDS011;60000;51.030;7.024;2023-12-28T06:55:55;6.27;;;1.80;;
72127;SDS011;60000;51.030;7.024;2023-12-28T06:58:21;5.85;;;1.58;;
72127;SDS011;60000;51.030;7.024;2023-12-28T07:00:46;5.20;;;1.50;;
72127;SDS011;60000;51.030;7.024;2023-12-28T07:03:11;5.77;;;1.90;;
72127;SDS011;60000;51.030;7.024;2023-12-28T07:05:37;4.47;;;1.83;;
72127;SDS011;60000;51.030;7.024;2023-12-28T07:08:02;4.47;;;1.40;;
72127;SDS011;60000;51.030;7.024;2023-12-28T07:10:27;5.33;;;1.80;;
72127;SDS011;60000;51.030;7.024;2023-12-28T07:12:53;5.83;;;1.80;;
72127;SDS011;60000;51.030;7.024;2023-12-28T07:15:18;6.17;;;1.90;;
72127;SDS011;60000;51.030;7.024;2023-12-28T07:17:43;4.83;;;1.57;;
72127;SDS011;60000;51.030;7.024;2023-12-28T07:20:09;4.90;;;1.70;;
72127;SDS011;60000;51.030;7.024;2023-12-28T07:22:35;4.93;;;1.60;;
72127;SDS011;60000;51.030;7.024;2023-12-28T07:25:01;4.72;;;1.40;;
72127;SDS011;60000;51.030;7.024;2023-12-28T07:27:27;4.53;;;1.37;;
72127;SDS011;60000;51.030;7.024;2023-12-28T07:29:52;5.77;;;1.70;;
72127;SDS011;60000;51.030;7.024;2023-12-28T07:32:17;4.10;;;1.60;;
72127;SDS011;60000;51.030;7.024;2023-12-28T07:34:44;4.45;;;1.52;;
72127;SDS011;60000;51.030;7.024;2023-12-28T07:37:10;3.58;;;1.38;;
72127;SDS011;60000;51.030;7.024;2023-12-28T07:39:35;4.97;;;1.50;;
72127;SDS011;60000;51.030;7.024;2023-12-28T07:42:01;4.87;;;1.43;;
72127;SDS011;60000;51.030;7.024;2023-12-28T07:44:26;4.67;;;1.43;;
72127;SDS011;60000;51.030;7.024;2023-12-28T07:46:52;3.60;;;1.25;;
72127;SDS011;60000;51.030;7.024;2023-12-28T07:49:17;5.68;;;1.63;;
72127;SDS011;60000;51.030;7.024;2023-12-28T07:51:42;4.93;;;1.60;;
72127;SDS011;60000;51.030;7.024;2023-12-28T07:54:08;6.30;;;1.40;;
72127;SDS011;60000;51.030;7.024;2023-12-28T07:56:33;4.10;;;1.30;;
72127;SDS011;60000;51.030;7.024;2023-12-28T07:58:58;4.30;;;1.50;;
72127;SDS011;60000;51.030;7.024;2023-12-28T08:01:23;5.13;;;1.43;;
72127;SDS011;60000;51.030;7.024;2023-12-28T08:03:50;5.93;;;1.60;;
72127;SDS011;60000;51.030;7.024;2023-12-28T08:06:15;5.57;;;1.83;;
72127;SDS011;60000;51.030;7.024;2023-12-28T08:08:41;5.33;;;1.53;;
72127;SDS011;60000;51.030;7.024;2023-12-28T08:11:06;6.10;;;1.80;;
72127;SDS011;60000;51.030;7.024;2023-12-28T08:13:31;6.47;;;1.60;;
72127;SDS011;60000;51.030;7.024;2023-12-28T08:15:57;5.80;;;1.97;;
72127;SDS011;60000;51.030;7.024;2023-12-28T08:18:22;5.77;;;1.37;;
72127;SDS011;60000;51.030;7.024;2023-12-28T08:20:47;5.40;;;1.60;;
72127;SDS011;60000;51.030;7.024;2023-12-28T08:23:14;4.90;;;1.33;;
72127;SDS011;60000;51.030;7.024;2023-12-28T08:25:39;5.03;;;1.70;;
72127;SDS011;60000;51.030;7.024;2023-12-28T08:28:05;6.90;;;1.67;;
72127;SDS011;60000;51.030;7.024;2023-12-28T08:30:30;4.70;;;1.60;;
72127;SDS011;60000;51.030;7.024;2023-12-28T08:32:55;8.83;;;1.90;;
72127;SDS011;60000;51.030;7.024;2023-12-28T08:35:21;4.03;;;1.33;;
72127;SDS011;60000;51.030;7.024;2023-12-28T08:37:46;5.07;;;1.50;;
72127;SDS011;60000;51.030;7.024;2023-12-28T08:40:11;5.57;;;1.47;;
72127;SDS011;60000;51.030;7.024;2023-12-28T08:42:37;3.93;;;1.40;;
72127;SDS011;60000;51.030;7.024;2023-12-28T08:45:02;8.30;;;1.70;;
72127;SDS011;60000;51.030;7.024;2023-12-28T08:47:28;7.35;;;1.73;;
72127;SDS011;60000;51.030;7.024;2023-12-28T08:49:53;6.50;;;1.65;;
72127;SDS011;60000;51.030;7.024;2023-12-28T08:52:18;7.13;;;1.63;;
72127;SDS011;60000;51.030;7.024;2023-12-28T08:54:44;5.20;;;1.67;;
72127;SDS011;60000;51.030;7.024;2023-12-28T08:57:09;7.33;;;1.80;;
72127;SDS011;60000;51.030;7.024;2023-12-28T08:59:37;4.97;;;1.73;;
72127;SDS011;60000;51.030;7.024;2023-12-28T09:02:03;6.13;;;1.52;;
72127;SDS011;60000;51.030;7.024;2023-12-28T09:04:28;4.87;;;1.50;;
72127;SDS011;60000;51.030;7.024;2023-12-28T09:06:53;6.27;;;1.47;;
72127;SDS011;60000;51.030;7.024;2023-12-28T09:09:19;7.00;;;1.77;;
72127;SDS011;60000;51.030;7.024;2023-12-28T09:11:44;7.83;;;2.17;;
72127;SDS011;60000;51.030;7.024;2023-12-28T09:14:09;6.07;;;1.80;;
72127;SDS011;60000;51.030;7.024;2023-12-28T09:16:35;8.43;;;1.85;;
72127;SDS011;60000;51.030;7.024;2023-12-28T09:19:00;6.17;;;1.63;;
72127;SDS011;60000;51.030;7.024;2023-12-28T09:21:26;7.80;;;2.25;;
72127;SDS011;60000;51.030;7.024;2023-12-28T09:23:52;4.63;;;1.37;;
72127;SDS011;60000;51.030;7.024;2023-12-28T09:26:17;6.47;;;1.40;;
72127;SDS011;60000;51.030;7.024;2023-12-28T09:28:43;5.60;;;1.47;;
72127;SDS011;60000;51.030;7.024;2023-12-28T09:31:08;5.53;;;1.42;;
72127;SDS011;60000;51.030;7.024;2023-12-28T09:33:34;6.07;;;1.53;;
72127;SDS011;60000;51.030;7.024;2023-12-28T09:35:59;5.88;;;1.48;;
72127;SDS011;60000;51.030;7.024;2023-12-28T09:38:27;8.77;;;2.10;;
72127;SDS011;60000;51.030;7.024;2023-12-28T09:40:53;5.90;;;2.08;;
72127;SDS011;60000;51.030;7.024;2023-12-28T09:45:48;3.67;;;1.33;;
72127;SDS011;60000;51.030;7.024;2023-12-28T09:48:17;8.60;;;1.50;;
72127;SDS011;60000;51.030;7.024;2023-12-28T09:50:49;8.55;;;2.30;;
72127;SDS011;60000;51.030;7.024;2023-12-28T09:53:16;8.38;;;1.83;;
72127;SDS011;60000;51.030;7.024;2023-12-28T09:55:42;6.30;;;2.17;;
72127;SDS011;60000;51.030;7.024;2023-12-28T09:58:07;6.53;;;1.80;;
72127;SDS011;60000;51.030;7.024;2023-12-28T10:00:34;7.57;;;1.85;;
72127;SDS011;60000;51.030;7.024;2023-12-28T10:03:00;5.23;;;1.83;;
72127;SDS011;60000;51.030;7.024;2023-12-28T10:05:28;5.57;;;1.40;;
72127;SDS011;60000;51.030;7.024;2023-12-28T10:07:53;6.77;;;1.60;;
72127;SDS011;60000;51.030;7.024;2023-12-28T10:10:20;9.15;;;1.92;;
72127;SDS011;60000;51.030;7.024;2023-12-28T10:12:47;6.45;;;1.65;;
72127;SDS011;60000;51.030;7.024;2023-12-28T10:15:12;5.40;;;1.40;;
72127;SDS011;60000;51.030;7.024;2023-12-28T10:17:38;6.67;;;1.63;;
72127;SDS011;60000;51.030;7.024;2023-12-28T10:20:05;5.38;;;1.45;;
72127;SDS011;60000;51.030;7.024;2023-12-28T10:22:35;9.65;;;2.20;;
72127;SDS011;60000;51.030;7.024;2023-12-28T10:25:02;9.70;;;3.60;;
72127;SDS011;60000;51.030;7.024;2023-12-28T10:27:28;9.13;;;3.10;;
72127;SDS011;60000;51.030;7.024;2023-12-28T10:29:54;5.25;;;1.50;;
72127;SDS011;60000;51.030;7.024;2023-12-28T10:32:20;4.53;;;1.57;;
72127;SDS011;60000;51.030;7.024;2023-12-28T10:34:47;5.97;;;1.70;;
72127;SDS011;60000;51.030;7.024;2023-12-28T10:37:13;5.50;;;1.27;;
72127;SDS011;60000;51.030;7.024;2023-12-28T10:39:39;5.13;;;1.38;;
72127;SDS011;60000;51.030;7.024;2023-12-28T10:42:11;8.63;;;1.67;;
72127;SDS011;60000;51.030;7.024;2023-12-28T10:44:39;7.03;;;1.58;;
72127;SDS011;60000;51.030;7.024;2023-12-28T10:47:08;7.18;;;1.50;;
72127;SDS011;60000;51.030;7.024;2023-12-28T10:49:40;8.43;;;2.00;;
72127;SDS011;60000;51.030;7.024;2023-12-28T10:52:08;6.53;;;1.50;;
72127;SDS011;60000;51.030;7.024;2023-12-28T10:54:43;8.43;;;1.80;;
72127;SDS011;60000;51.030;7.024;2023-12-28T10:57:17;12.48;;;2.47;;
72127;SDS011;60000;51.030;7.024;2023-12-28T11:00:10;11.82;;;2.92;;
72127;SDS011;60000;51.030;7.024;2023-12-28T11:03:01;14.63;;;3.63;;
72127;SDS011;60000;51.030;7.024;2023-12-28T11:05:28;11.73;;;2.00;;
72127;SDS011;60000;51.030;7.024;2023-12-28T11:07:55;11.30;;;2.30;;
72127;SDS011;60000;51.030;7.024;2023-12-28T11:10:23;16.10;;;4.40;;
72127;SDS011;60000;51.030;7.024;2023-12-28T11:12:51;12.57;;;2.60;;
72127;SDS011;60000;51.030;7.024;2023-12-28T11:15:18;14.83;;;3.77;;
72127;SDS011;60000;51.030;7.024;2023-12-28T11:17:44;8.70;;;2.30;;
72127;SDS011;60000;51.030;7.024;2023-12-28T11:20:09;8.97;;;2.30;;
72127;SDS011;60000;51.030;7.024;2023-12-28T11:22:35;9.57;;;2.10;;
72127;SDS011;60000;51.030;7.024;2023-12-28T11:25:02;7.05;;;1.67;;
72127;SDS011;60000;51.030;7.024;2023-12-28T11:27:35;8.98;;;1.45;;
72127;SDS011;60000;51.030;7.024;2023-12-28T11:30:01;6.22;;;1.58;;
72127;SDS011;60000;51.030;7.024;2023-12-28T11:32:32;7.72;;;1.80;;
72127;SDS011;60000;51.030;7.024;2023-12-28T11:34:58;7.63;;;1.67;;
72127;SDS011;60000;51.030;7.024;2023-12-28T11:37:24;7.83;;;1.70;;
72127;SDS011;60000;51.030;7.024;2023-12-28T11:39:51;7.95;;;1.40;;
72127;SDS011;60000;51.030;7.024;2023-12-28T11:42:20;4.60;;;1.40;;
72127;SDS011;60000;51.030;7.024;2023-12-28T11:44:47;4.45;;;1.45;;
72127;SDS011;60000;51.030;7.024;2023-12-28T11:49:47;6.40;;;2.03;;
72127;SDS011;60000;51.030;7.024;2023-12-28T11:52:26;6.47;;;1.45;;
72127;SDS011;60000;51.030;7.024;2023-12-28T11:54:52;7.03;;;1.77;;
72127;SDS011;60000;51.030;7.024;2023-12-28T11:57:18;6.40;;;1.60;;
72127;SDS011;60000;51.030;7.024;2023-12-28T11:59:43;7.43;;;1.83;;
72127;SDS011;60000;51.030;7.024;2023-12-28T12:02:09;5.83;;;1.40;;
72127;SDS011;60000;51.030;7.024;2023-12-28T12:04:36;5.88;;;1.27;;
72127;SDS011;60000;51.030;7.024;2023-12-28T12:07:02;7.73;;;1.70;;
72127;SDS011;60000;51.030;7.024;2023-12-28T12:09:31;7.43;;;2.22;;
72127;SDS011;60000;51.030;7.024;2023-12-28T12:12:02;5.57;;;1.63;;
72127;SDS011;60000;51.030;7.024;2023-12-28T12:14:29;6.60;;;1.40;;
72127;SDS011;60000;51.030;7.024;2023-12-28T12:16:55;6.10;;;1.40;;
72127;SDS011;60000;51.030;7.024;2023-12-28T12:19:24;4.73;;;1.17;;
72127;SDS011;60000;51.030;7.024;2023-12-28T12:21:54;6.90;;;1.20;;
72127;SDS011;60000;51.030;7.024;2023-12-28T12:24:20;4.55;;;1.30;;
72127;SDS011;60000;51.030;7.024;2023-12-28T12:26:46;7.22;;;1.48;;
72127;SDS011;60000;51.030;7.024;2023-12-28T12:29:12;5.77;;;1.40;;
72127;SDS011;60000;51.030;7.024;2023-12-28T12:31:37;7.10;;;1.65;;
72127;SDS011;60000;51.030;7.024;2023-12-28T12:34:06;5.75;;;1.30;;
72127;SDS011;60000;51.030;7.024;2023-12-28T12:36:34;4.80;;;1.40;;
72127;SDS011;60000;51.030;7.024;2023-12-28T12:39:00;6.50;;;1.55;;
72127;SDS011;60000;51.030;7.024;2023-12-28T12:41:26;6.55;;;1.50;;
72127;SDS011;60000;51.030;7.024;2023-12-28T12:43:51;7.10;;;1.50;;
72127;SDS011;60000;51.030;7.024;2023-12-28T12:46:17;4.65;;;1.35;;
72127;SDS011;60000;51.030;7.024;2023-12-28T12:48:43;5.43;;;1.43;;
72127;SDS011;60000;51.030;7.024;2023-12-28T12:51:18;6.65;;;1.30;;
72127;SDS011;60000;51.030;7.024;2023-12-28T12:53:44;7.67;;;1.40;;
72127;SDS011;60000;51.030;7.024;2023-12-28T12:56:12;6.23;;;1.57;;
72127;SDS011;60000;51.030;7.024;2023-12-28T12:58:38;5.55;;;1.25;;
72127;SDS011;60000;51.030;7.024;2023-12-28T13:01:03;6.93;;;1.60;;
72127;SDS011;60000;51.030;7.024;2023-12-28T13:03:29;6.17;;;1.40;;
72127;SDS011;60000;51.030;7.024;2023-12-28T13:05:55;6.88;;;1.40;;
72127;SDS011;60000;51.030;7.024;2023-12-28T13:08:21;7.13;;;1.60;;
72127;SDS011;60000;51.030;7.024;2023-12-28T13:10:47;5.65;;;1.50;;
72127;SDS011;60000;51.030;7.024;2023-12-28T13:13:12;8.43;;;1.40;;
72127;SDS011;60000;51.030;7.024;2023-12-28T13:15:37;6.83;;;1.70;;
72127;SDS011;60000;51.030;7.024;2023-12-28T13:18:03;5.50;;;1.53;;
72127;SDS011;60000;51.030;7.024;2023-12-28T13:20:28;5.90;;;1.85;;
72127;SDS011;60000;51.030;7.024;2023-12-28T13:22:53;5.23;;;1.07;;
72127;SDS011;60000;51.030;7.024;2023-12-28T13:25:19;5.37;;;1.33;;
72127;SDS011;60000;51.030;7.024;2023-12-28T13:27:44;6.00;;;1.13;;
72127;SDS011;60000;51.030;7.024;2023-12-28T13:30:09;6.93;;;1.50;;
72127;SDS011;60000;51.030;7.024;2023-12-28T13:32:37;7.47;;;1.42;;
72127;SDS011;60000;51.030;7.024;2023-12-28T13:35:02;7.17;;;1.83;;
72127;SDS011;60000;51.030;7.024;2023-12-28T13:37:28;6.77;;;1.70;;
72127;SDS011;60000;51.030;7.024;2023-12-28T13:39:53;6.10;;;1.20;;
72127;SDS011;60000;51.030;7.024;2023-12-28T13:42:18;8.38;;;1.95;;
72127;SDS011;60000;51.030;7.024;2023-12-28T13:44:44;5.07;;;1.27;;
72127;SDS011;60000;51.030;7.024;2023-12-28T13:47:09;5.80;;;1.40;;
72127;SDS011;60000;51.030;7.024;2023-12-28T13:49:34;6.33;;;1.53;;
72127;SDS011;60000;51.030;7.024;2023-12-28T13:52:00;4.70;;;1.27;;
72127;SDS011;60000;51.030;7.024;2023-12-28T13:54:25;7.13;;;1.37;;
72127;SDS011;60000;51.030;7.024;2023-12-28T13:56:50;11.07;;;2.83;;
72127;SDS011;60000;51.030;7.024;2023-12-28T13:59:21;6.38;;;1.40;;
72127;SDS011;60000;51.030;7.024;2023-12-28T14:01:47;8.77;;;2.03;;
72127;SDS011;60000;51.030;7.024;2023-12-28T14:04:12;8.05;;;2.38;;
72127;SDS011;60000;51.030;7.024;2023-12-28T14:06:37;8.60;;;1.50;;
72127;SDS011;60000;51.030;7.024;2023-12-28T14:09:03;8.50;;;1.80;;
72127;SDS011;60000;51.030;7.024;2023-12-28T14:11:28;5.93;;;1.40;;
72127;SDS011;60000;51.030;7.024;2023-12-28T14:13:53;6.97;;;1.80;;
72127;SDS011;60000;51.030;7.024;2023-12-28T14:16:18;8.63;;;1.97;;
72127;SDS011;60000;51.030;7.024;2023-12-28T14:18:44;8.13;;;1.70;;
72127;SDS011;60000;51.030;7.024;2023-12-28T14:21:09;6.17;;;1.60;;
72127;SDS011;60000;51.030;7.024;2023-12-28T14:23:37;10.48;;;2.80;;
72127;SDS011;60000;51.030;7.024;2023-12-28T14:26:04;9.55;;;2.20;;
72127;SDS011;60000;51.030;7.024;2023-12-28T14:28:42;8.37;;;1.70;;
72127;SDS011;60000;51.030;7.024;2023-12-28T14:31:09;5.47;;;1.60;;
72127;SDS011;60000;51.030;7.024;2023-12-28T14:33:37;7.97;;;1.40;;
72127;SDS011;60000;51.030;7.024;2023-12-28T14:36:05;6.80;;;1.77;;
72127;SDS011;60000;51.030;7.024;2023-12-28T14:38:38;7.75;;;1.73;;
72127;SDS011;60000;51.030;7.024;2023-12-28T14:41:03;5.77;;;1.53;;
72127;SDS011;60000;51.030;7.024;2023-12-28T14:43:29;7.27;;;1.93;;
72127;SDS011;60000;51.030;7.024;2023-12-28T14:45:54;5.70;;;1.43;;
72127;SDS011;60000;51.030;7.024;2023-12-28T14:48:19;6.60;;;1.37;;
72127;SDS011;60000;51.030;7.024;2023-12-28T14:50:45;9.83;;;1.50;;
72127;SDS011;60000;51.030;7.024;2023-12-28T14:53:10;6.73;;;1.60;;
72127;SDS011;60000;51.030;7.024;2023-12-28T14:55:35;4.88;;;1.50;;
72127;SDS011;60000;51.030;7.024;2023-12-28T14:58:01;10.70;;;1.80;;
72127;SDS011;60000;51.030;7.024;2023-12-28T15:00:27;7.97;;;1.48;;
72127;SDS011;60000;51.030;7.024;2023-12-28T15:02:52;5.72;;;1.60;;
72127;SDS011;60000;51.030;7.024;2023-12-28T15:05:17;5.47;;;1.57;;
72127;SDS011;60000;51.030;7.024;2023-12-28T15:14:04;7.07;;;1.90;;
72127;SDS011;60000;51.030;7.024;2023-12-28T15:16:50;6.60;;;1.60;;
72127;SDS011;60000;51.030;7.024;2023-12-28T15:19:16;7.30;;;1.73;;
72127;SDS011;60000;51.030;7.024;2023-12-28T15:21:41;8.45;;;2.00;;
72127;SDS011;60000;51.030;7.024;2023-12-28T15:24:07;5.77;;;1.50;;
72127;SDS011;60000;51.030;7.024;2023-12-28T15:26:32;6.38;;;1.42;;
72127;SDS011;60000;51.030;7.024;2023-12-28T15:28:58;5.37;;;1.33;;
72127;SDS011;60000;51.030;7.024;2023-12-28T15:31:23;7.57;;;1.50;;
72127;SDS011;60000;51.030;7.024;2023-12-28T15:33:49;5.85;;;1.42;;